OPI weather

Oenpelli Airport
Northern Territory, Australia

Public forecast

Using degrees Celsius for public forecast. Weather courtesy of forecast.io.

Closest aviation weather report (METAR) to Oenpelli Airport

Closest report is Darwin International Airport, 125.0 nm (231.5 km) W. Retrieved 2020/06/04 05:00 UTC (14 minutes ago):

YPDN 040500Z 11007KT CAVOK 30/10 Q1013 NOSIG

Closest aviation forecast (TAF) to Oenpelli Airport

Closest forecast is Darwin International Airport, 125.0 nm (231.5 km) W. Retrieved 2020-06-04 00:00 UTC (5 hours ago):

TAF YPDN 032316Z 0400/0506 11014KT CAVOK